createdAt,value
2022-08-11T00:00:07.104Z,14.72
2022-08-11T00:01:07.086Z,14.70
2022-08-11T00:02:07.076Z,14.70
2022-08-11T00:03:08.214Z,14.69
2022-08-11T00:04:07.051Z,14.68
2022-08-11T00:05:07.034Z,14.66
2022-08-11T00:06:07.027Z,14.69
2022-08-11T00:07:07.035Z,14.69
2022-08-11T00:08:06.996Z,14.68
2022-08-11T00:09:06.982Z,14.65
2022-08-11T00:10:06.970Z,14.63
2022-08-11T00:11:06.960Z,14.59
2022-08-11T00:12:06.947Z,14.55
2022-08-11T00:13:06.930Z,14.55
2022-08-11T00:14:06.919Z,14.58
2022-08-11T00:15:06.903Z,14.58
2022-08-11T00:16:06.891Z,14.55
2022-08-11T00:17:06.878Z,14.54
2022-08-11T00:18:06.868Z,14.53
2022-08-11T00:19:06.856Z,14.53
2022-08-11T00:20:13.124Z,14.51
2022-08-11T00:21:07.862Z,14.50
2022-08-11T00:22:06.810Z,14.50
2022-08-11T00:23:06.812Z,14.48
2022-08-11T00:24:06.789Z,14.51
2022-08-11T00:25:06.777Z,14.51
2022-08-11T00:26:06.764Z,14.48
2022-08-11T00:27:06.750Z,14.45
2022-08-11T00:28:06.738Z,14.47
2022-08-11T00:29:06.722Z,14.48
2022-08-11T00:30:06.727Z,14.47
2022-08-11T00:31:06.697Z,14.48
2022-08-11T00:32:06.687Z,14.48
2022-08-11T00:33:06.671Z,14.51
2022-08-11T00:34:06.658Z,14.50
2022-08-11T00:35:53.613Z,14.50
2022-08-11T00:36:07.655Z,14.53
2022-08-11T00:37:06.622Z,14.55
2022-08-11T00:38:06.607Z,14.55
2022-08-11T00:39:06.691Z,14.55
2022-08-11T00:40:06.580Z,14.58
2022-08-11T00:41:06.571Z,14.59
2022-08-11T00:42:06.555Z,14.55
2022-08-11T00:43:06.543Z,14.54
2022-08-11T00:44:06.531Z,14.55
2022-08-11T00:45:06.515Z,14.55
2022-08-11T00:46:06.508Z,14.58
2022-08-11T00:47:06.492Z,14.59
2022-08-11T00:48:06.476Z,14.60
2022-08-11T00:49:06.463Z,14.66
2022-08-11T00:50:06.450Z,14.69
2022-08-11T00:51:06.438Z,14.70
2022-08-11T00:52:06.555Z,14.79
2022-08-11T00:53:06.413Z,14.88
2022-08-11T00:54:06.406Z,14.96
2022-08-11T00:55:06.386Z,15.04
2022-08-11T00:56:06.373Z,15.06
2022-08-11T00:57:35.858Z,15.10
2022-08-11T00:58:07.376Z,15.14
2022-08-11T00:59:06.347Z,15.15
2022-08-11T01:00:07.354Z,15.17
2022-08-11T01:01:06.370Z,15.19
2022-08-11T01:02:06.294Z,15.22
2022-08-11T01:03:06.282Z,15.25
2022-08-11T01:04:06.268Z,15.28
2022-08-11T01:05:06.256Z,15.33
2022-08-11T01:06:07.845Z,15.35
2022-08-11T01:07:06.233Z,15.36
2022-08-11T01:08:06.220Z,15.39
2022-08-11T01:09:06.204Z,15.40
2022-08-11T01:10:07.475Z,15.36
2022-08-11T01:11:06.178Z,15.35
2022-08-11T01:12:06.162Z,15.35
2022-08-11T01:13:08.476Z,15.33
2022-08-11T01:14:06.138Z,15.31
2022-08-11T01:15:06.122Z,15.31
2022-08-11T01:16:06.112Z,15.31
2022-08-11T01:17:09.847Z,15.28
2022-08-11T01:18:06.087Z,15.28
2022-08-11T01:19:06.076Z,15.27
2022-08-11T01:20:47.185Z,15.27
2022-08-11T01:21:07.085Z,15.25
2022-08-11T01:22:06.063Z,15.24
2022-08-11T01:23:07.398Z,15.19
2022-08-11T01:24:06.015Z,15.17
2022-08-11T01:25:06.001Z,15.17
2022-08-11T01:26:05.985Z,15.15
2022-08-11T01:27:18.885Z,15.11
2022-08-11T01:28:06.985Z,15.11
2022-08-11T01:29:05.942Z,15.10
2022-08-11T01:30:05.932Z,15.11
2022-08-11T01:31:05.919Z,15.09
2022-08-11T01:32:05.907Z,15.07
2022-08-11T01:33:05.891Z,15.06
2022-08-11T01:34:05.882Z,15.06
2022-08-11T01:35:05.877Z,15.06
2022-08-11T01:36:05.853Z,15.03
2022-08-11T01:37:05.842Z,15.02
2022-08-11T01:38:05.832Z,15.03
2022-08-11T01:39:05.813Z,15.03
2022-08-11T01:40:05.801Z,15.02
2022-08-11T01:41:05.790Z,15.02
2022-08-11T01:42:05.774Z,15.00
2022-08-11T01:43:05.764Z,14.97
2022-08-11T01:44:05.753Z,14.99
2022-08-11T01:45:06.769Z,14.97
2022-08-11T01:46:05.724Z,14.97
2022-08-11T01:47:05.721Z,14.97
2022-08-11T01:48:05.696Z,14.97
2022-08-11T01:49:59.681Z,14.96
2022-08-11T01:50:10.225Z,14.96
2022-08-11T01:51:05.663Z,14.96
2022-08-11T01:52:05.646Z,14.94
2022-08-11T01:53:05.632Z,14.92
2022-08-11T01:54:05.623Z,14.89
2022-08-11T01:55:05.607Z,14.89
2022-08-11T01:56:05.598Z,14.88
2022-08-11T01:57:05.581Z,14.86
2022-08-11T01:58:05.568Z,14.86
2022-08-11T01:59:05.563Z,14.86
2022-08-11T02:00:05.542Z,14.86
2022-08-11T02:01:05.564Z,14.86
2022-08-11T02:02:05.516Z,14.85
2022-08-11T02:03:05.505Z,14.86
2022-08-11T02:04:05.491Z,14.85
2022-08-11T02:05:05.480Z,14.86
2022-08-11T02:06:05.466Z,14.85
2022-08-11T02:07:08.796Z,14.84
2022-08-11T02:08:05.440Z,14.81
2022-08-11T02:09:05.431Z,14.79
2022-08-11T02:10:05.415Z,14.78
2022-08-11T02:11:05.400Z,14.81
2022-08-11T02:12:05.387Z,14.81
2022-08-11T02:13:05.386Z,14.81
2022-08-11T02:14:05.366Z,14.84
2022-08-11T02:15:05.853Z,14.85
2022-08-11T02:16:05.334Z,14.85
2022-08-11T02:17:05.319Z,14.88
2022-08-11T02:18:05.314Z,14.86
2022-08-11T02:19:05.298Z,14.88
2022-08-11T02:20:05.282Z,14.94
2022-08-11T02:21:05.268Z,14.96
2022-08-11T02:22:05.255Z,14.97
2022-08-11T02:23:05.243Z,14.99
2022-08-11T02:24:08.036Z,14.94
2022-08-11T02:25:05.226Z,14.94
2022-08-11T02:26:05.205Z,14.92
2022-08-11T02:27:05.197Z,14.92
2022-08-11T02:28:05.179Z,14.89
2022-08-11T02:29:05.165Z,14.89
2022-08-11T02:30:05.316Z,14.88
2022-08-11T02:31:05.142Z,14.85
2022-08-11T02:32:24.953Z,14.81
2022-08-11T02:33:06.149Z,14.81
2022-08-11T02:34:05.101Z,14.79
2022-08-11T02:35:05.091Z,14.78
2022-08-11T02:36:05.077Z,14.77
2022-08-11T02:37:05.063Z,14.73
2022-08-11T02:38:05.050Z,14.72
2022-08-11T02:39:05.045Z,14.68
2022-08-11T02:40:05.021Z,14.65
2022-08-11T02:41:05.009Z,14.62
2022-08-11T02:42:04.995Z,14.60
2022-08-11T02:43:04.982Z,14.60
2022-08-11T02:44:04.971Z,14.58
2022-08-11T02:45:04.957Z,14.58
2022-08-11T02:46:04.947Z,14.60
2022-08-11T02:47:04.931Z,14.58
2022-08-11T02:48:04.922Z,14.55
2022-08-11T02:49:04.913Z,14.55
2022-08-11T02:50:06.789Z,14.54
2022-08-11T02:51:04.882Z,14.54
2022-08-11T02:52:04.868Z,14.53
2022-08-11T02:53:04.855Z,14.48
2022-08-11T02:54:04.841Z,14.48
2022-08-11T02:55:04.839Z,14.48
2022-08-11T02:56:04.818Z,14.43
2022-08-11T02:57:04.804Z,14.43
2022-08-11T02:58:05.820Z,14.41
2022-08-11T02:59:04.778Z,14.40
2022-08-11T03:00:04.765Z,14.37
2022-08-11T03:01:04.752Z,14.40
2022-08-11T03:02:05.610Z,14.33
2022-08-11T03:03:04.727Z,14.29
2022-08-11T03:04:04.714Z,14.30
2022-08-11T03:05:04.702Z,14.25
2022-08-11T03:06:04.689Z,14.26
2022-08-11T03:07:04.867Z,14.25
2022-08-11T03:08:05.690Z,14.22
2022-08-11T03:09:04.654Z,14.23
2022-08-11T03:10:04.634Z,14.20
2022-08-11T03:11:04.620Z,14.18
2022-08-11T03:12:04.609Z,14.22
2022-08-11T03:13:04.595Z,14.18
2022-08-11T03:14:04.582Z,14.17
2022-08-11T03:15:04.570Z,14.12
2022-08-11T03:16:04.560Z,14.11
2022-08-11T03:17:04.558Z,14.11
2022-08-11T03:18:04.533Z,14.08
2022-08-11T03:19:04.520Z,14.08
2022-08-11T03:20:04.510Z,14.10
2022-08-11T03:21:04.491Z,14.07
2022-08-11T03:22:06.521Z,14.03
2022-08-11T03:23:04.472Z,13.99
2022-08-11T03:24:05.484Z,13.95
2022-08-11T03:25:04.443Z,13.92
2022-08-11T03:26:04.427Z,13.90
2022-08-11T03:27:04.414Z,13.87
2022-08-11T03:28:04.408Z,13.83
2022-08-11T03:29:04.392Z,13.74
2022-08-11T03:30:04.376Z,13.68
2022-08-11T03:31:04.363Z,13.72
2022-08-11T03:32:04.349Z,13.70
2022-08-11T03:33:04.336Z,13.67
2022-08-11T03:34:07.014Z,13.60
2022-08-11T03:35:04.331Z,13.60
2022-08-11T03:36:04.305Z,13.62
2022-08-11T03:37:16.005Z,13.63
2022-08-11T03:38:05.309Z,13.60
2022-08-11T03:39:04.277Z,13.57
2022-08-11T03:40:04.434Z,13.54
2022-08-11T03:41:04.236Z,13.53
2022-08-11T03:42:08.479Z,13.54
2022-08-11T03:43:04.211Z,13.56
2022-08-11T03:44:04.196Z,13.56
2022-08-11T03:45:04.185Z,13.49
2022-08-11T03:46:04.171Z,13.52
2022-08-11T03:47:04.164Z,13.56
2022-08-11T03:48:04.148Z,13.57
2022-08-11T03:49:04.134Z,13.60
2022-08-11T03:50:04.121Z,13.56
2022-08-11T03:51:04.112Z,13.56
2022-08-11T03:52:04.095Z,13.56
2022-08-11T03:53:04.078Z,13.60
2022-08-11T03:54:04.069Z,13.57
2022-08-11T03:55:04.061Z,13.53
2022-08-11T03:56:04.061Z,13.53
2022-08-11T03:57:04.028Z,13.53
2022-08-11T03:58:04.024Z,13.53
2022-08-11T03:59:04.005Z,13.52
2022-08-11T04:00:03.992Z,13.52
2022-08-11T04:01:03.980Z,13.49
2022-08-11T04:02:04.003Z,13.47
2022-08-11T04:03:03.951Z,13.49
2022-08-11T04:04:03.939Z,13.47
2022-08-11T04:05:03.928Z,13.50
2022-08-11T04:06:03.916Z,13.53
2022-08-11T04:07:03.901Z,13.50
2022-08-11T04:08:03.888Z,13.49
2022-08-11T04:09:03.881Z,13.56
2022-08-11T04:10:03.866Z,13.57
2022-08-11T04:11:03.851Z,13.53
2022-08-11T04:12:03.837Z,13.52
2022-08-11T04:13:03.828Z,13.49
2022-08-11T04:14:03.816Z,13.49
2022-08-11T04:15:03.826Z,13.50
2022-08-11T04:16:11.869Z,13.53
2022-08-11T04:17:04.804Z,13.52
2022-08-11T04:18:03.763Z,13.53
2022-08-11T04:19:03.748Z,13.52
2022-08-11T04:20:03.735Z,13.52
2022-08-11T04:21:03.723Z,13.53
2022-08-11T04:22:03.715Z,13.53
2022-08-11T04:23:03.704Z,13.56
2022-08-11T04:24:36.797Z,13.54
2022-08-11T04:25:04.705Z,13.53
2022-08-11T04:26:15.868Z,13.54
2022-08-11T04:27:05.033Z,13.53
2022-08-11T04:28:03.632Z,13.54
2022-08-11T04:29:03.621Z,13.53
2022-08-11T04:30:05.409Z,13.52
2022-08-11T04:31:03.596Z,13.54
2022-08-11T04:32:03.586Z,13.52
2022-08-11T04:33:03.570Z,13.54
2022-08-11T04:34:03.556Z,13.56
2022-08-11T04:35:03.543Z,13.56
2022-08-11T04:36:03.529Z,13.59
2022-08-11T04:37:03.517Z,13.54
2022-08-11T04:38:03.502Z,13.57
2022-08-11T04:39:03.491Z,13.56
2022-08-11T04:40:03.478Z,13.56
2022-08-11T04:41:03.465Z,13.56
2022-08-11T04:42:03.453Z,13.59
2022-08-11T04:43:03.446Z,13.54
2022-08-11T04:44:06.169Z,13.56
2022-08-11T04:45:03.413Z,13.56
2022-08-11T04:46:03.403Z,13.56
2022-08-11T04:47:03.389Z,13.54
2022-08-11T04:48:04.630Z,13.53
2022-08-11T04:49:03.363Z,13.52
2022-08-11T04:50:03.346Z,13.54
2022-08-11T04:51:08.764Z,13.50
2022-08-11T04:52:04.353Z,13.53
2022-08-11T04:53:03.311Z,13.54
2022-08-11T04:54:03.296Z,13.60
2022-08-11T04:55:03.293Z,13.67
2022-08-11T04:56:03.298Z,13.68
2022-08-11T04:57:03.261Z,13.77
2022-08-11T04:58:03.250Z,13.86
2022-08-11T04:59:03.235Z,13.95
2022-08-11T05:00:03.223Z,14.05
2022-08-11T05:01:03.210Z,14.10
2022-08-11T05:02:03.308Z,14.12
2022-08-11T05:03:03.185Z,14.18
2022-08-11T05:04:03.173Z,14.28
2022-08-11T05:05:03.161Z,14.33
2022-08-11T05:06:03.150Z,14.36
2022-08-11T05:07:03.133Z,14.44
2022-08-11T05:08:03.127Z,14.45
2022-08-11T05:09:03.107Z,14.53
2022-08-11T05:10:03.099Z,14.65
2022-08-11T05:11:03.081Z,14.81
2022-08-11T05:12:03.080Z,14.94
2022-08-11T05:13:03.055Z,15.07
2022-08-11T05:14:03.046Z,15.33
2022-08-11T05:15:03.030Z,15.57
2022-08-11T05:16:03.024Z,15.79
2022-08-11T05:17:03.007Z,15.94
2022-08-11T05:18:02.995Z,16.10
2022-08-11T05:19:02.978Z,16.29
2022-08-11T05:20:02.968Z,16.51
2022-08-11T05:21:05.162Z,16.74
2022-08-11T05:22:02.939Z,16.94
2022-08-11T05:23:02.923Z,17.14
2022-08-11T05:24:02.914Z,17.31
2022-08-11T05:25:02.911Z,17.49
2022-08-11T05:26:43.096Z,17.76
2022-08-11T05:27:03.906Z,17.97
2022-08-11T05:28:02.865Z,18.22
2022-08-11T05:29:19.493Z,18.58
2022-08-11T05:30:03.870Z,18.92
2022-08-11T05:31:02.832Z,19.16
2022-08-11T05:32:02.812Z,19.49
2022-08-11T05:33:02.798Z,19.84
2022-08-11T05:34:02.785Z,20.16
2022-08-11T05:35:02.773Z,20.40
2022-08-11T05:36:03.467Z,20.78
2022-08-11T05:37:25.144Z,21.22
2022-08-11T05:38:03.771Z,21.64
2022-08-11T05:39:02.722Z,22.18
2022-08-11T05:40:02.854Z,22.66
2022-08-11T05:41:02.701Z,23.13
2022-08-11T05:42:02.685Z,23.63
2022-08-11T05:43:02.673Z,24.20
2022-08-11T05:44:21.174Z,24.60
2022-08-11T05:45:03.675Z,24.92
2022-08-11T05:46:07.146Z,25.31
2022-08-11T05:47:02.621Z,25.63
2022-08-11T05:48:02.604Z,26.02
2022-08-11T05:49:02.601Z,26.22
2022-08-11T05:50:02.580Z,26.53
2022-08-11T05:51:02.569Z,26.85
2022-08-11T05:52:05.649Z,27.22
2022-08-11T05:53:03.574Z,27.64
2022-08-11T05:54:02.528Z,27.96
2022-08-11T05:55:06.926Z,28.23
2022-08-11T05:56:03.835Z,28.47
2022-08-11T05:57:02.488Z,28.74
2022-08-11T05:58:02.479Z,28.78
2022-08-11T05:59:02.462Z,28.69
2022-08-11T06:00:02.454Z,28.85
2022-08-11T06:01:02.438Z,29.12
2022-08-11T06:02:02.608Z,29.20
2022-08-11T06:03:02.411Z,29.13
2022-08-11T06:04:02.414Z,28.78
2022-08-11T06:05:02.399Z,27.96
2022-08-11T06:06:02.374Z,26.90
2022-08-11T06:07:02.361Z,26.07
2022-08-11T06:08:02.348Z,25.16
2022-08-11T06:09:02.374Z,24.35
2022-08-11T06:10:02.323Z,23.55
2022-08-11T06:11:02.310Z,22.99
2022-08-11T06:12:02.315Z,22.44
2022-08-11T06:13:02.282Z,22.00
2022-08-11T06:14:02.272Z,21.72
2022-08-11T06:15:02.262Z,21.50
2022-08-11T06:16:06.656Z,21.17
2022-08-11T06:17:02.225Z,20.96
2022-08-11T06:18:02.218Z,20.93
2022-08-11T06:19:02.209Z,20.87
2022-08-11T06:20:07.147Z,20.90
2022-08-11T06:21:02.184Z,21.00
2022-08-11T06:22:02.167Z,21.57
2022-08-11T06:23:02.154Z,22.63
2022-08-11T06:24:02.144Z,23.84
2022-08-11T06:25:02.135Z,24.92
2022-08-11T06:26:02.113Z,25.83
2022-08-11T06:27:12.395Z,26.95
2022-08-11T06:28:03.116Z,27.80
2022-08-11T06:29:02.077Z,28.56
2022-08-11T06:30:02.063Z,29.26
2022-08-11T06:31:02.050Z,29.90
2022-08-11T06:32:02.037Z,30.50
2022-08-11T06:33:02.031Z,30.96
2022-08-11T06:34:02.015Z,31.00
2022-08-11T06:35:02.000Z,30.62
2022-08-11T06:36:01.983Z,30.87
2022-08-11T06:37:01.970Z,31.44
2022-08-11T06:38:01.956Z,31.78
2022-08-11T06:39:01.949Z,31.96
2022-08-11T06:40:01.937Z,31.90
2022-08-11T06:41:01.921Z,31.52
2022-08-11T06:42:01.908Z,31.44
2022-08-11T06:43:01.887Z,31.84
2022-08-11T06:44:05.237Z,32.26
2022-08-11T06:45:01.870Z,32.58
2022-08-11T06:46:01.849Z,32.70
2022-08-11T06:47:01.847Z,32.51
2022-08-11T06:48:01.829Z,32.58
2022-08-11T06:49:01.820Z,32.52
2022-08-11T06:50:01.804Z,32.53
2022-08-11T06:51:01.784Z,32.90
2022-08-11T06:52:01.911Z,33.04
2022-08-11T06:53:01.768Z,32.37
2022-08-11T06:54:04.813Z,32.43
2022-08-11T06:55:01.744Z,32.64
2022-08-11T06:56:01.725Z,32.43
2022-08-11T06:57:28.446Z,32.63
2022-08-11T06:58:02.735Z,32.68
2022-08-11T06:59:01.686Z,33.05
2022-08-11T07:00:01.682Z,33.23
2022-08-11T07:01:01.660Z,32.70
2022-08-11T07:02:01.708Z,32.92
2022-08-11T07:03:01.636Z,32.67
2022-08-11T07:04:01.628Z,32.64
2022-08-11T07:05:01.623Z,32.92
2022-08-11T07:06:01.605Z,32.30
2022-08-11T07:07:01.581Z,31.94
2022-08-11T07:08:34.197Z,32.15
2022-08-11T07:09:02.592Z,32.12
2022-08-11T07:10:01.558Z,31.92
2022-08-11T07:11:01.557Z,32.21
2022-08-11T07:12:01.547Z,32.71
2022-08-11T07:13:01.534Z,33.11
2022-08-11T07:14:01.504Z,33.42
2022-08-11T07:15:01.487Z,33.84
2022-08-11T07:16:12.979Z,33.98
2022-08-11T07:17:02.497Z,34.16
2022-08-11T07:18:01.466Z,34.32
2022-08-11T07:19:01.443Z,34.43
2022-08-11T07:20:01.433Z,34.47
2022-08-11T07:21:02.377Z,33.89
2022-08-11T07:22:03.803Z,34.11
2022-08-11T07:23:01.417Z,32.83
2022-08-11T07:24:01.378Z,33.11
2022-08-11T07:25:03.342Z,32.55
2022-08-11T07:26:01.349Z,33.02
2022-08-11T07:27:01.341Z,33.62
2022-08-11T07:28:01.325Z,33.96
2022-08-11T07:29:01.317Z,33.98
2022-08-11T07:30:01.303Z,33.73
2022-08-11T07:31:01.289Z,33.40
2022-08-11T07:32:01.278Z,33.50
2022-08-11T07:33:01.261Z,34.03
2022-08-11T07:34:06.409Z,34.43
2022-08-11T07:35:02.269Z,33.84
2022-08-11T07:36:01.227Z,33.50
2022-08-11T07:37:01.211Z,33.30
2022-08-11T07:38:01.619Z,33.40
2022-08-11T07:39:01.182Z,33.71
2022-08-11T07:40:01.265Z,33.80
2022-08-11T07:41:01.161Z,33.95
2022-08-11T07:42:01.145Z,33.58
2022-08-11T07:43:01.138Z,33.86
2022-08-11T07:44:01.120Z,34.36
2022-08-11T07:45:01.108Z,34.77
2022-08-11T07:46:01.103Z,33.76
2022-08-11T07:47:01.166Z,33.76
2022-08-11T07:48:01.069Z,33.39
2022-08-11T07:49:01.067Z,33.19
2022-08-11T07:50:01.046Z,33.05
2022-08-11T07:51:01.039Z,32.67
2022-08-11T07:52:01.018Z,32.73
2022-08-11T07:53:01.009Z,32.85
2022-08-11T07:54:14.471Z,32.01
2022-08-11T07:55:02.297Z,31.27
2022-08-11T07:56:00.976Z,31.36
2022-08-11T07:57:08.932Z,32.14
2022-08-11T07:58:16.455Z,32.45
2022-08-11T07:59:08.122Z,32.21
2022-08-11T08:00:04.845Z,31.87
2022-08-11T08:01:01.588Z,32.03
2022-08-11T08:02:00.964Z,31.90
2022-08-11T08:03:00.879Z,31.47
2022-08-11T08:04:00.868Z,30.77
2022-08-11T08:05:00.865Z,29.81
2022-08-11T08:06:00.846Z,28.84
2022-08-11T08:07:00.835Z,28.15
2022-08-11T08:08:00.827Z,27.60
2022-08-11T08:09:00.848Z,27.39
2022-08-11T08:10:00.788Z,27.03
2022-08-11T08:11:00.784Z,26.73
2022-08-11T08:12:00.761Z,26.60
2022-08-11T08:13:00.759Z,26.41
2022-08-11T08:14:00.746Z,26.23
2022-08-11T08:15:01.153Z,26.00
2022-08-11T08:16:00.722Z,25.70
2022-08-11T08:17:00.704Z,25.32
2022-08-11T08:18:09.799Z,24.95
2022-08-11T08:19:00.685Z,24.91
2022-08-11T08:20:00.672Z,24.93
2022-08-11T08:21:00.655Z,24.86
2022-08-11T08:22:11.963Z,24.78
2022-08-11T08:23:01.659Z,24.69
2022-08-11T08:24:00.612Z,24.61
2022-08-11T08:25:00.600Z,24.40
2022-08-11T08:26:00.589Z,24.13
2022-08-11T08:27:00.580Z,23.96
2022-08-11T08:28:00.572Z,23.63
2022-08-11T08:29:00.561Z,23.36
2022-08-11T08:30:00.537Z,23.13
2022-08-11T08:31:00.533Z,23.12
2022-08-11T08:32:00.528Z,22.91
2022-08-11T08:33:00.503Z,23.02
2022-08-11T08:34:00.488Z,23.18
2022-08-11T08:35:00.481Z,23.41
2022-08-11T08:36:00.464Z,23.58
2022-08-11T08:37:00.464Z,23.65
2022-08-11T08:38:00.439Z,23.61
2022-08-11T08:39:00.429Z,23.68
2022-08-11T08:40:00.416Z,23.69
2022-08-11T08:41:00.410Z,23.74
2022-08-11T08:42:00.391Z,23.84
2022-08-11T08:43:00.378Z,23.88
2022-08-11T08:44:27.346Z,23.68
2022-08-11T08:45:01.386Z,23.41
2022-08-11T08:46:00.341Z,23.25
2022-08-11T08:47:00.325Z,23.15
2022-08-11T08:48:00.312Z,23.12
2022-08-11T08:49:00.305Z,23.17
2022-08-11T08:50:00.295Z,23.18
2022-08-11T08:51:00.279Z,23.17
2022-08-11T08:52:20.556Z,23.09
2022-08-11T08:53:01.286Z,22.99
2022-08-11T08:54:00.242Z,23.02
2022-08-11T08:55:00.227Z,23.15
2022-08-11T08:56:00.214Z,23.24
2022-08-11T08:57:00.200Z,23.18
2022-08-11T08:58:00.191Z,23.06
2022-08-11T08:59:00.173Z,23.06
2022-08-11T09:00:00.180Z,22.96
2022-08-11T09:01:00.186Z,22.78
2022-08-11T09:02:00.149Z,22.76
2022-08-11T09:03:12.496Z,22.85
2022-08-11T09:04:06.877Z,22.90
2022-08-11T09:05:01.145Z,22.91
2022-08-11T09:06:00.108Z,22.90
2022-08-11T09:07:00.079Z,22.94
2022-08-11T09:08:00.067Z,22.99
2022-08-11T09:09:00.050Z,23.21
2022-08-11T09:10:00.039Z,23.31
2022-08-11T09:11:00.027Z,23.32
2022-08-11T09:12:00.015Z,23.36
2022-08-11T09:13:00.000Z,23.39
2022-08-11T09:14:04.795Z,23.36
2022-08-11T09:15:01.012Z,23.23
2022-08-11T09:15:59.969Z,23.12
2022-08-11T09:16:59.954Z,23.09
2022-08-11T09:17:59.940Z,22.96
2022-08-11T09:18:59.933Z,22.99
2022-08-11T09:19:59.914Z,23.05
2022-08-11T09:20:59.902Z,23.06
2022-08-11T09:21:59.887Z,23.08
2022-08-11T09:23:41.305Z,23.09
2022-08-11T09:24:13.047Z,23.12
2022-08-11T09:25:00.886Z,23.17
2022-08-11T09:25:59.838Z,23.15
2022-08-11T09:26:59.825Z,23.06
2022-08-11T09:27:59.815Z,23.08
2022-08-11T09:28:59.801Z,23.09
2022-08-11T09:29:59.787Z,23.08
2022-08-11T09:30:59.777Z,23.06
2022-08-11T09:31:59.765Z,22.98
2022-08-11T09:32:59.751Z,22.88
2022-08-11T09:33:59.737Z,22.88
2022-08-11T09:34:59.722Z,22.93
2022-08-11T09:35:59.716Z,22.96
2022-08-11T09:36:59.703Z,22.98
2022-08-11T09:37:59.891Z,22.93
2022-08-11T09:38:59.677Z,22.90
2022-08-11T09:39:59.738Z,22.90
2022-08-11T09:40:59.648Z,22.88
2022-08-11T09:42:03.158Z,22.91
2022-08-11T09:42:59.631Z,22.91
2022-08-11T09:44:03.571Z,22.85
2022-08-11T09:45:00.974Z,22.91
2022-08-11T09:45:59.582Z,23.03
2022-08-11T09:46:59.571Z,23.09
2022-08-11T09:47:59.558Z,23.08
2022-08-11T09:48:59.546Z,23.06
2022-08-11T09:49:59.536Z,23.12
2022-08-11T09:50:59.521Z,23.20
2022-08-11T09:52:05.048Z,23.25
2022-08-11T09:53:37.156Z,23.31
2022-08-11T09:54:03.020Z,23.34
2022-08-11T09:54:59.466Z,23.36
2022-08-11T09:55:59.450Z,23.40
2022-08-11T09:57:04.683Z,23.31
2022-08-11T09:57:59.427Z,23.17
2022-08-11T09:58:59.414Z,23.13
2022-08-11T10:00:12.195Z,23.12
2022-08-11T10:01:00.481Z,23.12
2022-08-11T10:01:59.375Z,23.10
2022-08-11T10:02:59.361Z,23.12
2022-08-11T10:03:59.357Z,23.20
2022-08-11T10:04:59.342Z,23.32
2022-08-11T10:05:59.319Z,23.39
2022-08-11T10:06:59.306Z,23.39
2022-08-11T10:07:59.296Z,23.34
2022-08-11T10:08:59.277Z,23.39
2022-08-11T10:09:59.269Z,23.40
2022-08-11T10:10:59.252Z,23.44
2022-08-11T10:11:59.242Z,23.48
2022-08-11T10:12:59.226Z,23.59
2022-08-11T10:14:31.261Z,23.56
2022-08-11T10:15:00.249Z,23.58
2022-08-11T10:16:14.529Z,23.63
2022-08-11T10:17:00.204Z,23.71
2022-08-11T10:17:59.156Z,23.68
2022-08-11T10:18:59.145Z,23.68
2022-08-11T10:20:04.991Z,23.68
2022-08-11T10:21:00.152Z,23.55
2022-08-11T10:21:59.102Z,23.37
2022-08-11T10:22:59.090Z,23.25
2022-08-11T10:24:00.865Z,23.25
2022-08-11T10:25:00.104Z,23.32
2022-08-11T10:25:59.054Z,23.34
2022-08-11T10:27:00.066Z,23.40
2022-08-11T10:28:32.660Z,23.39
2022-08-11T10:29:12.748Z,23.32
2022-08-11T10:30:00.025Z,23.40
2022-08-11T10:30:58.988Z,23.51
2022-08-11T10:31:59.448Z,23.58
2022-08-11T10:33:00.086Z,23.56
2022-08-11T10:33:59.685Z,23.54
2022-08-11T10:34:58.934Z,23.47
2022-08-11T10:35:58.923Z,23.44
2022-08-11T10:36:58.907Z,23.47
2022-08-11T10:38:07.783Z,23.48
2022-08-11T10:38:59.904Z,23.55
2022-08-11T10:39:58.857Z,23.50
2022-08-11T10:40:58.850Z,23.54
2022-08-11T10:42:06.708Z,23.51
2022-08-11T10:43:00.102Z,23.55
2022-08-11T10:44:02.584Z,23.41
2022-08-11T10:44:58.796Z,23.36
2022-08-11T10:45:58.791Z,23.32
2022-08-11T10:46:58.769Z,23.39
2022-08-11T10:47:58.765Z,23.40
2022-08-11T10:48:58.749Z,23.41
2022-08-11T10:49:58.730Z,23.34
2022-08-11T10:50:58.718Z,23.25
2022-08-11T10:51:59.027Z,23.31
2022-08-11T10:52:58.707Z,23.36
2022-08-11T10:53:58.686Z,23.43
2022-08-11T10:54:58.663Z,23.47
2022-08-11T10:55:59.001Z,23.46
2022-08-11T10:56:58.640Z,23.50
2022-08-11T10:58:04.882Z,23.54
2022-08-11T10:59:03.449Z,23.55
2022-08-11T10:59:58.619Z,23.54
2022-08-11T11:00:58.642Z,23.56
2022-08-11T11:01:58.569Z,23.63
2022-08-11T11:03:23.188Z,23.71
2022-08-11T11:03:59.584Z,23.74
2022-08-11T11:04:58.530Z,23.77
2022-08-11T11:06:27.566Z,23.77
2022-08-11T11:06:59.539Z,23.78
2022-08-11T11:07:58.492Z,23.76
2022-08-11T11:09:03.351Z,23.78
2022-08-11T11:09:59.496Z,23.80
2022-08-11T11:10:58.446Z,23.84
2022-08-11T11:11:58.439Z,23.81
2022-08-11T11:12:58.441Z,23.76
2022-08-11T11:13:58.428Z,23.76
2022-08-11T11:14:59.290Z,23.76
2022-08-11T11:15:58.390Z,23.78
2022-08-11T11:16:58.374Z,23.78
2022-08-11T11:17:58.361Z,23.80
2022-08-11T11:19:01.273Z,23.87
2022-08-11T11:19:58.339Z,23.93
2022-08-11T11:20:58.320Z,23.95
2022-08-11T11:21:58.309Z,23.98
2022-08-11T11:22:58.294Z,23.98
2022-08-11T11:23:58.285Z,23.99
2022-08-11T11:24:58.275Z,24.11
2022-08-11T11:25:58.491Z,24.13
2022-08-11T11:26:58.245Z,24.18
2022-08-11T11:27:58.230Z,24.17
2022-08-11T11:28:58.219Z,24.06
2022-08-11T11:29:58.219Z,23.91
2022-08-11T11:30:58.198Z,23.78
2022-08-11T11:31:58.184Z,23.83
2022-08-11T11:32:58.169Z,23.83
2022-08-11T11:34:12.095Z,23.81
2022-08-11T11:34:59.167Z,23.86
2022-08-11T11:35:58.130Z,23.93
2022-08-11T11:36:58.113Z,23.98
2022-08-11T11:38:04.738Z,24.01
2022-08-11T11:38:59.124Z,24.05
2022-08-11T11:39:58.088Z,24.11
2022-08-11T11:40:58.070Z,24.18
2022-08-11T11:41:58.047Z,24.14
2022-08-11T11:42:58.047Z,24.10
2022-08-11T11:43:58.035Z,24.06
2022-08-11T11:45:01.200Z,24.08
2022-08-11T11:45:58.021Z,24.10
2022-08-11T11:46:57.997Z,24.16
2022-08-11T11:47:57.981Z,24.16
2022-08-11T11:48:57.970Z,24.16
2022-08-11T11:49:57.957Z,24.18
2022-08-11T11:50:58.630Z,24.21
2022-08-11T11:51:57.934Z,24.33
2022-08-11T11:52:57.919Z,24.36
2022-08-11T11:53:57.908Z,24.32
2022-08-11T11:54:57.895Z,24.30
2022-08-11T11:55:59.187Z,24.28
2022-08-11T11:56:57.876Z,24.26
2022-08-11T11:57:59.212Z,24.21
2022-08-11T11:58:57.846Z,24.21
2022-08-11T11:59:57.833Z,24.23
2022-08-11T12:00:57.827Z,24.20
2022-08-11T12:01:57.806Z,24.26
2022-08-11T12:02:57.857Z,24.36
2022-08-11T12:03:57.783Z,24.50
2022-08-11T12:04:57.772Z,24.60
2022-08-11T12:05:57.765Z,24.61
2022-08-11T12:06:57.748Z,24.65
2022-08-11T12:08:10.581Z,24.58
2022-08-11T12:08:58.753Z,24.51
2022-08-11T12:09:57.707Z,24.54
2022-08-11T12:10:57.699Z,24.63
2022-08-11T12:11:57.682Z,24.68
2022-08-11T12:12:57.671Z,24.76
2022-08-11T12:13:57.654Z,24.80
2022-08-11T12:14:57.642Z,24.91
2022-08-11T12:16:31.727Z,24.91
2022-08-11T12:16:58.651Z,24.91
2022-08-11T12:17:57.601Z,24.89
2022-08-11T12:18:57.590Z,24.86
2022-08-11T12:19:57.575Z,24.81
2022-08-11T12:20:57.561Z,24.91
2022-08-11T12:21:59.429Z,24.85
2022-08-11T12:22:57.543Z,24.85
2022-08-11T12:24:01.033Z,24.88
2022-08-11T12:24:58.541Z,24.93
2022-08-11T12:26:23.368Z,24.98
2022-08-11T12:27:16.361Z,25.08
2022-08-11T12:27:58.500Z,25.11
2022-08-11T12:28:57.455Z,25.16
2022-08-11T12:29:57.473Z,25.16
2022-08-11T12:30:57.432Z,25.17
2022-08-11T12:31:57.419Z,25.22
2022-08-11T12:32:57.403Z,25.18
2022-08-11T12:33:57.388Z,25.18
2022-08-11T12:34:57.374Z,25.17
2022-08-11T12:36:00.615Z,25.17
2022-08-11T12:36:57.346Z,25.18
2022-08-11T12:38:03.706Z,25.22
2022-08-11T12:38:58.364Z,25.11
2022-08-11T12:40:17.029Z,25.07
2022-08-11T12:41:57.350Z,25.13
2022-08-11T12:42:57.274Z,25.11
2022-08-11T12:43:57.571Z,25.01
2022-08-11T12:44:57.246Z,25.01
2022-08-11T12:45:57.227Z,25.08
2022-08-11T12:46:57.223Z,25.13
2022-08-11T12:48:12.300Z,25.08
2022-08-11T12:49:02.006Z,25.08
2022-08-11T12:49:57.178Z,25.08
2022-08-11T12:50:57.167Z,25.13
2022-08-11T12:52:11.768Z,25.13
2022-08-11T12:52:58.167Z,25.18